Details From LSGS - Sion
To LFLP - Annecy Haute-Sovoie Mont Blanc Meythet
Flight Number -
Tags generated
Created
Modified
Stats Distance 54 nm / 100 km
Max Altitude 3,300 ft / 1,006 m
Waypoints 3
Social Downloads 1
Likes 0
Share VATSIM

Download

Looking for another format? Having issues loading an existing format? Contact us
Advertisement - Login to hide

Notes

Basic altitude profile: - Ascent Rate: 2500ft/min - Ascent Speed: 250kts - Cruise Altitude: 13000ft - Cruise Speed: 145kts - Descent Rate: 1500ft/min - Descent Speed: 250kts Options: - Use NATs: yes - Use PACOTS: yes - Use low airways: yes - Use high airways: no

Route

LSGS PAS21 LFLP

ID Type Via Altitude Latitude Longitude Leg Dist Tot Dist Heading (true) Name
O LSGS APT - 0 ft / 0 m 46.21895˚ 7.32409˚ - 0 nm - Sion
PAS21 FIX - 3,300 ft / 1,006 m 46.00864˚ 6.45197˚ 38 nm 38 nm 251° / 251° -
O LFLP APT - 0 ft / 0 m 45.92882˚ 6.09960˚ 15 nm 53 nm 252° / 252° Annecy Haute-Sovoie Mont Blanc Meythet

Altitude Profile

Advertisement - Login to hide

LSGS

Details ICAO LSGS (SIR)
Name Sion
Region Switzerland
Timezone Europe/Zurich (UTC+1.0)
Stats Elevation 1,585 ft / 483 m (AMSL)
Location 46.218954° 7.324090°
Runways 2
Magnetic Variation 2.042° E

METAR

LSGS 131120Z 08006KT 9999 FEW040 SCT200 M01/M06 Q1020

Decode

TAF

Not found

Departure Runways

ID Width Length Bearing (true) Bearing (mag) Surface Threshold Offset Overrun Length
07L 98 ft / 30 m 2,167 ft / 661 m 72.83° 70.79° Grass 0 ft / 0 m 0 ft / 0 m
07R 131 ft / 40 m 6,605 ft / 2,013 m 72.84° 70.80° Asphalt 164 ft / 50 m 627 ft / 191 m
25L 131 ft / 40 m 6,605 ft / 2,013 m 252.86° 250.82° Asphalt 164 ft / 50 m 627 ft / 191 m
25R 98 ft / 30 m 2,167 ft / 661 m 252.83° 250.79° Grass 328 ft / 100 m 0 ft / 0 m

LFLP

Details ICAO LFLP (NCY)
Name Annecy Haute-Sovoie Mont Blanc Meythet
Region France
Timezone Europe/Paris (UTC+1.0)
Stats Elevation 1,520 ft / 463 m (AMSL)
Location 45.928820° 6.099601°
Runways 2
Magnetic Variation 1.740° E

METAR

LFLP 131130Z AUTO 20003KT CAVOK 01/M01 Q1017 NOSIG

Decode

TAF

TAF LFLP 130800Z 1309/1409 VRB03KT CAVOK BECMG 1310/1312 24006KT BECMG 1312/1314 BKN035 TEMPO 1312/1409 5000 -RA BKN025 PROB40 TEMPO 1318/1404 3000 RA BKN010 BKN015

Decode

Destination Runways

ID Width Length Bearing (true) Bearing (mag) Surface Threshold Offset Overrun Length
04 98 ft / 30 m 5,290 ft / 1,612 m 38.51° 36.77° Asphalt 820 ft / 250 m 0 ft / 0 m
22 98 ft / 30 m 5,290 ft / 1,612 m 218.52° 216.78° Asphalt 755 ft / 230 m 0 ft / 0 m
22C 230 ft / 70 m 2,783 ft / 848 m 218.40° 216.66° Grass 0 ft / 0 m 0 ft / 0 m
4C 230 ft / 70 m 2,783 ft / 848 m 38.40° 36.66° Grass 0 ft / 0 m 0 ft / 0 m

Approach Navaids

Runway Type Ident Frequency Range Bearing (true) Bearing (mag) Slope Elevation
04 Localiser ANM 108.90 MHz 27 nm / 50 km 38.56° 36.82° - 1,520 ft / 463 m (AMSL)
04 Glidescope ANM 108.90 MHz 10 nm / 19 km 38.51° 36.77° 3.68° 1,529 ft / 466 m (AMSL)
04 DME ANM 108.90 MHz 27 nm / 50 km - - - 1,520 ft / 463 m (AMSL)